createdAt,value
2019-03-23T00:04:57.942Z,10.30
2019-03-23T00:10:11.498Z,9.07
2019-03-23T00:15:26.563Z,9.10
2019-03-23T00:20:30.399Z,10.37
2019-03-23T00:25:37.155Z,9.33
2019-03-23T00:30:40.796Z,8.73
2019-03-23T00:35:47.216Z,9.53
2019-03-23T00:40:50.893Z,8.83
2019-03-23T00:45:54.428Z,8.50
2019-03-23T00:50:58.100Z,8.30
2019-03-23T00:56:16.593Z,9.37
2019-03-23T01:01:20.570Z,8.67
2019-03-23T01:06:24.830Z,7.80
2019-03-23T01:11:28.821Z,7.80
2019-03-23T01:16:41.327Z,8.60
2019-03-23T01:21:44.315Z,7.60
2019-03-23T01:26:48.025Z,7.43
2019-03-23T01:31:52.131Z,8.10
2019-03-23T01:37:02.669Z,6.37
2019-03-23T01:42:02.358Z,6.70
2019-03-23T01:47:06.735Z,7.90
2019-03-23T01:52:10.384Z,7.27
2019-03-23T01:57:13.967Z,8.40
2019-03-23T02:02:17.604Z,8.13
2019-03-23T02:07:21.151Z,7.67
2019-03-23T02:12:24.682Z,7.97
2019-03-23T02:17:28.334Z,7.40
2019-03-23T02:22:31.962Z,9.00
2019-03-23T02:27:35.548Z,11.60
2019-03-23T02:32:39.137Z,16.63
2019-03-23T02:37:42.842Z,19.33
2019-03-23T02:42:46.498Z,25.43
2019-03-23T02:47:50.071Z,26.47
2019-03-23T02:52:53.721Z,29.90
2019-03-23T02:57:57.507Z,33.23
2019-03-23T03:03:01.037Z,30.83
2019-03-23T03:08:04.542Z,34.17
2019-03-23T03:13:08.200Z,37.60
2019-03-23T03:18:11.837Z,40.03
2019-03-23T03:23:15.386Z,38.97
2019-03-23T03:28:19.073Z,38.70
2019-03-23T03:33:22.684Z,43.33
2019-03-23T03:38:26.357Z,42.97
2019-03-23T03:43:29.927Z,40.80
2019-03-23T03:48:33.458Z,38.60
2019-03-23T03:53:36.999Z,38.83
2019-03-23T03:58:40.542Z,35.43
2019-03-23T04:03:44.137Z,38.40
2019-03-23T04:08:47.819Z,39.47
2019-03-23T04:13:51.429Z,38.67
2019-03-23T04:18:55.031Z,39.67
2019-03-23T04:23:58.551Z,36.70
2019-03-23T04:29:02.266Z,34.30
2019-03-23T04:34:05.789Z,32.10
2019-03-23T04:39:09.326Z,32.80
2019-03-23T04:44:12.895Z,32.33
2019-03-23T04:49:16.405Z,31.33
2019-03-23T04:54:19.959Z,32.67
2019-03-23T04:59:23.614Z,29.77
2019-03-23T05:04:27.195Z,31.77
2019-03-23T05:09:30.737Z,30.83
2019-03-23T05:14:34.426Z,30.50
2019-03-23T05:19:37.986Z,30.77
2019-03-23T05:24:41.624Z,28.97
2019-03-23T05:29:45.203Z,30.27
2019-03-23T05:34:48.838Z,28.97
2019-03-23T05:39:52.417Z,30.90
2019-03-23T05:44:55.931Z,29.33
2019-03-23T05:49:59.530Z,29.63
2019-03-23T05:55:03.102Z,29.90
2019-03-23T06:00:07.371Z,29.13
2019-03-23T06:05:10.912Z,27.30
2019-03-23T06:10:14.438Z,29.00
2019-03-23T06:15:17.991Z,29.70
2019-03-23T06:20:21.507Z,30.00
2019-03-23T06:25:25.091Z,29.57
2019-03-23T06:30:28.623Z,30.80
2019-03-23T06:35:32.183Z,29.73
2019-03-23T06:40:35.831Z,31.50
2019-03-23T06:45:39.684Z,30.10
2019-03-23T06:50:43.195Z,31.63
2019-03-23T06:55:46.760Z,30.00
2019-03-23T07:00:50.613Z,30.30
2019-03-23T07:05:54.138Z,32.67
2019-03-23T07:10:59.740Z,31.70
2019-03-23T07:16:04.230Z,33.53
2019-03-23T07:21:08.717Z,32.87
2019-03-23T07:26:14.210Z,31.80
2019-03-23T07:31:18.381Z,32.57
2019-03-23T07:36:21.949Z,36.27
2019-03-23T07:41:25.480Z,37.30
2019-03-23T07:46:29.015Z,36.00
2019-03-23T07:51:32.685Z,34.37
2019-03-23T07:56:36.190Z,35.43
2019-03-23T08:01:39.833Z,34.27
2019-03-23T08:06:43.366Z,32.97
2019-03-23T08:11:46.885Z,31.73
2019-03-23T08:16:50.410Z,32.53
2019-03-23T08:21:54.049Z,32.23
2019-03-23T08:26:57.564Z,31.80
2019-03-23T08:32:01.106Z,31.30
2019-03-23T08:37:04.904Z,30.73
2019-03-23T08:42:08.480Z,30.43
2019-03-23T08:47:12.099Z,31.87
2019-03-23T08:52:15.657Z,30.33
2019-03-23T08:57:19.293Z,28.13
2019-03-23T09:02:22.859Z,29.50
2019-03-23T09:07:26.442Z,29.20
2019-03-23T09:12:30.008Z,26.60
2019-03-23T09:17:33.575Z,25.60
2019-03-23T09:22:37.219Z,24.10
2019-03-23T09:27:40.723Z,24.13
2019-03-23T09:32:44.362Z,25.30
2019-03-23T09:37:47.880Z,26.63
2019-03-23T09:42:51.475Z,25.57
2019-03-23T09:47:54.990Z,28.33
2019-03-23T09:52:58.536Z,25.87
2019-03-23T09:58:02.179Z,27.53
2019-03-23T10:03:05.765Z,25.97
2019-03-23T10:08:09.333Z,25.43
2019-03-23T10:13:12.876Z,26.70
2019-03-23T10:18:16.549Z,26.03
2019-03-23T10:23:20.166Z,27.33
2019-03-23T10:28:23.760Z,26.17
2019-03-23T10:33:27.273Z,26.10
2019-03-23T10:38:30.792Z,28.60
2019-03-23T10:43:34.334Z,26.80
2019-03-23T10:48:38.095Z,26.60
2019-03-23T10:53:41.675Z,27.40
2019-03-23T10:58:45.273Z,27.43
2019-03-23T11:03:48.893Z,27.03
2019-03-23T11:08:52.568Z,26.33
2019-03-23T11:13:56.206Z,27.57
2019-03-23T11:18:59.764Z,26.30
2019-03-23T11:24:03.366Z,26.67
2019-03-23T11:29:08.462Z,28.50
2019-03-23T11:34:17.820Z,27.40
2019-03-23T11:39:17.849Z,28.40
2019-03-23T11:44:21.443Z,28.60
2019-03-23T11:49:25.053Z,28.70
2019-03-23T11:54:28.624Z,27.60
2019-03-23T11:59:32.220Z,26.27
2019-03-23T12:04:35.778Z,26.90
2019-03-23T12:09:39.342Z,25.97
2019-03-23T12:14:42.898Z,27.33
2019-03-23T12:19:46.431Z,26.10
2019-03-23T12:24:49.969Z,27.10
2019-03-23T12:29:53.580Z,27.63
2019-03-23T12:34:57.147Z,28.20
2019-03-23T12:40:00.713Z,25.60
2019-03-23T12:45:05.187Z,25.90
2019-03-23T12:50:09.221Z,28.00
2019-03-23T12:55:12.782Z,27.67
2019-03-23T13:00:17.790Z,25.03
2019-03-23T13:05:21.471Z,23.80
2019-03-23T13:10:25.027Z,25.50
2019-03-23T13:15:28.583Z,23.90
2019-03-23T13:20:32.249Z,24.90
2019-03-23T13:25:35.886Z,25.60
2019-03-23T13:30:39.432Z,23.90
2019-03-23T13:35:42.995Z,23.73
2019-03-23T13:40:46.528Z,23.83
2019-03-23T13:45:50.082Z,24.50
2019-03-23T13:50:53.824Z,23.57
2019-03-23T13:55:57.450Z,25.50
2019-03-23T14:01:01.020Z,23.57
2019-03-23T14:06:04.818Z,26.37
2019-03-23T14:11:08.337Z,24.80
2019-03-23T14:16:11.861Z,26.83
2019-03-23T14:21:15.392Z,23.93
2019-03-23T14:26:19.077Z,26.10
2019-03-23T14:31:22.680Z,23.70
2019-03-23T14:36:27.944Z,26.10
2019-03-23T14:41:32.693Z,25.40
2019-03-23T14:46:36.315Z,27.27
2019-03-23T14:51:39.867Z,25.80
2019-03-23T14:56:43.438Z,27.00
2019-03-23T15:01:50.420Z,27.43
2019-03-23T15:06:56.408Z,27.80
2019-03-23T15:12:01.187Z,29.20
2019-03-23T15:17:04.810Z,28.67
2019-03-23T15:22:08.631Z,27.80
2019-03-23T15:27:14.061Z,29.03
2019-03-23T15:32:17.717Z,29.77
2019-03-23T15:37:21.285Z,28.60
2019-03-23T15:42:25.226Z,30.90
2019-03-23T15:47:29.054Z,30.80
2019-03-23T15:52:33.034Z,29.80
2019-03-23T15:57:36.969Z,27.47
2019-03-23T16:02:41.016Z,29.10
2019-03-23T16:07:47.325Z,32.17
